Time;durP1;ratioP1;P1;durP2;ratioP2;P2;SDS_P1;SDS_P2;PMS_P1;PMS_P2;Temp;Humidity;BMP_temperature;BMP_pressure;BME280_temperature;BME280_humidity;BME280_pressure;Samples;Min_cycle;Max_cycle;Signal;HPM_P1;HPM_P2
2023/06/08 00:01:35;;;;;;;11.25;6.38;;;22.90;80.30;;;;;;5135387;27;20033;-78
2023/06/08 00:04:05;;;;;;;10.02;6.80;;;22.90;80.40;;;;;;5134762;27;20027;-78
2023/06/08 00:06:33;;;;;;;9.93;6.40;;;22.90;80.40;;;;;;5135065;27;20395;-78
2023/06/08 00:09:01;;;;;;;11.77;6.40;;;22.90;80.60;;;;;;5134935;27;20031;-79
2023/06/08 00:11:27;;;;;;;9.65;6.55;;;22.80;80.60;;;;;;5134495;27;20111;-77
2023/06/08 00:13:53;;;;;;;10.45;6.22;;;22.80;80.80;;;;;;5134701;27;20134;-78
2023/06/08 00:16:20;;;;;;;9.55;7.07;;;22.80;80.90;;;;;;5134841;27;20031;-78
2023/06/08 00:18:46;;;;;;;8.98;6.68;;;22.80;81.00;;;;;;5134766;27;20133;-79
2023/06/08 00:21:15;;;;;;;12.38;7.13;;;22.70;81.10;;;;;;5134857;27;20037;-78
2023/06/08 00:23:41;;;;;;;8.85;6.40;;;22.60;81.40;;;;;;5134714;27;20031;-80
2023/06/08 00:26:07;;;;;;;10.23;6.57;;;22.60;81.50;;;;;;5134329;27;20043;-78
2023/06/08 00:28:32;;;;;;;12.52;7.03;;;22.60;81.90;;;;;;5134606;27;20068;-78
2023/06/08 00:30:58;;;;;;;11.68;7.25;;;22.50;81.90;;;;;;5134655;27;20511;-77
2023/06/08 00:33:24;;;;;;;12.63;6.72;;;22.50;82.00;;;;;;5137943;27;20035;-79
2023/06/08 00:35:50;;;;;;;10.35;6.65;;;22.50;82.10;;;;;;5136723;27;20422;-79
2023/06/08 00:38:15;;;;;;;10.80;6.93;;;22.50;82.30;;;;;;5134485;27;20080;-78
2023/06/08 00:40:44;;;;;;;10.98;7.10;;;22.50;82.00;;;;;;5142616;27;20035;-79
2023/06/08 00:43:09;;;;;;;11.07;6.25;;;22.60;82.10;;;;;;5137690;27;20031;-78
2023/06/08 00:45:35;;;;;;;10.00;6.47;;;22.60;82.30;;;;;;5133738;27;20488;-78
2023/06/08 00:48:02;;;;;;;11.18;6.40;;;22.60;82.30;;;;;;5116001;27;20035;-78
2023/06/08 00:50:31;;;;;;;10.93;6.72;;;22.60;82.10;;;;;;5134017;27;20058;-77
2023/06/08 00:52:57;;;;;;;11.85;6.78;;;22.70;82.10;;;;;;5134450;27;20034;-78
2023/06/08 00:55:24;;;;;;;11.20;6.95;;;22.70;82.10;;;;;;5134103;27;20128;-78
2023/06/08 00:57:51;;;;;;;11.32;7.03;;;22.70;82.10;;;;;;5140094;27;20023;-77
2023/06/08 01:00:17;;;;;;;13.15;7.28;;;22.70;82.00;;;;;;5135021;27;20110;-79
2023/06/08 01:02:43;;;;;;;12.57;7.28;;;22.70;82.00;;;;;;5133984;27;20130;-78
2023/06/08 01:05:09;;;;;;;15.45;7.47;;;22.70;82.10;;;;;;5133728;27;20041;-78
2023/06/08 01:07:50;;;;;;;19.77;6.95;;;22.70;82.00;;;;;;5133478;27;20027;-76
2023/06/08 01:10:37;;;;;;;57.17;10.30;;;22.80;82.70;;;;;;5133312;27;20480;-77
2023/06/08 01:13:50;;;;;;;37.00;10.77;;;22.80;82.00;;;;;;5133749;27;20027;-77
2023/06/08 01:16:18;;;;;;;28.80;9.15;;;22.70;82.70;;;;;;5030293;28;20208;-78
2023/06/08 01:18:44;;;;;;;17.33;7.90;;;22.70;82.00;;;;;;5122930;27;20035;-78
2023/06/08 01:22:07;;;;;;;16.23;7.78;;;22.70;82.00;;;;;;5137132;27;20054;-78
2023/06/08 01:24:36;;;;;;;15.82;7.60;;;22.60;82.60;;;;;;5047738;28;20058;-78
2023/06/08 01:27:06;;;;;;;11.60;8.38;;;22.60;82.10;;;;;;5045884;28;20091;-78
2023/06/08 01:29:33;;;;;;;16.95;7.78;;;22.60;82.20;;;;;;5082397;28;20477;-78
2023/06/08 01:31:59;;;;;;;11.82;7.05;;;22.60;82.30;;;;;;5112708;28;20028;-77
2023/06/08 01:34:26;;;;;;;12.52;7.50;;;22.60;82.40;;;;;;5111072;28;20027;-77
2023/06/08 01:36:56;;;;;;;10.90;7.20;;;22.60;82.20;;;;;;5112792;28;20139;-78
2023/06/08 01:39:28;;;;;;;9.75;7.32;;;22.60;82.50;;;;;;5112445;28;20067;-78
2023/06/08 01:41:58;;;;;;;13.90;6.95;;;22.60;83.00;;;;;;5111767;28;20035;-78
2023/06/08 01:44:26;;;;;;;12.38;7.38;;;22.50;82.40;;;;;;5112440;28;20047;-78
2023/06/08 01:46:58;;;;;;;12.10;6.80;;;22.50;82.70;;;;;;5112464;28;20477;-78
2023/06/08 01:49:26;;;;;;;10.45;7.15;;;22.40;83.10;;;;;;5112567;28;20148;-78
2023/06/08 01:51:52;;;;;;;11.95;7.72;;;22.40;83.30;;;;;;5112508;28;20031;-77
2023/06/08 01:54:22;;;;;;;10.85;7.03;;;22.40;83.50;;;;;;5112208;28;20408;-77
2023/06/08 01:56:47;;;;;;;11.82;8.20;;;22.40;83.50;;;;;;5112354;28;20051;-78
2023/06/08 01:59:13;;;;;;;10.52;7.18;;;22.30;83.50;;;;;;5115389;28;20073;-75
2023/06/08 02:01:39;;;;;;;16.58;8.23;;;22.30;83.80;;;;;;5114596;28;20349;-79
2023/06/08 02:04:04;;;;;;;11.23;7.15;;;22.30;83.90;;;;;;5112170;28;20453;-78
2023/06/08 02:06:30;;;;;;;11.40;7.07;;;22.30;84.00;;;;;;5112770;28;20059;-78
2023/06/08 02:08:57;;;;;;;12.60;8.48;;;22.30;83.90;;;;;;5112642;28;20104;-78
2023/06/08 02:11:23;;;;;;;11.18;8.00;;;22.40;84.00;;;;;;5112665;28;20039;-78
2023/06/08 02:13:49;;;;;;;15.20;8.82;;;22.40;84.50;;;;;;5111372;28;20248;-79
2023/06/08 02:16:18;;;;;;;10.15;7.45;;;22.40;84.00;;;;;;5112213;28;20051;-78
2023/06/08 02:18:45;;;;;;;11.38;7.97;;;22.40;83.60;;;;;;5117680;28;20023;-78
2023/06/08 02:21:11;;;;;;;16.00;8.57;;;22.30;83.80;;;;;;5110828;28;20417;-78
2023/06/08 02:23:38;;;;;;;12.43;8.55;;;22.30;84.00;;;;;;5112046;28;20035;-78
2023/06/08 02:26:05;;;;;;;11.13;7.43;;;22.20;84.10;;;;;;5111904;28;20497;-80
2023/06/08 02:28:31;;;;;;;15.55;8.73;;;22.20;84.20;;;;;;5111956;28;20111;-78
2023/06/08 02:30:57;;;;;;;11.32;7.72;;;22.20;84.40;;;;;;5111883;28;20470;-78
2023/06/08 02:33:22;;;;;;;11.45;7.72;;;22.10;84.50;;;;;;5112207;28;20111;-78
2023/06/08 02:35:48;;;;;;;12.13;7.32;;;22.20;85.00;;;;;;5111902;28;20089;-77
2023/06/08 02:38:14;;;;;;;13.10;7.57;;;22.10;84.30;;;;;;5111989;28;20032;-77
2023/06/08 02:40:41;;;;;;;13.00;8.00;;;22.10;84.50;;;;;;5111923;28;20036;-77
2023/06/08 02:43:07;;;;;;;10.23;7.45;;;22.00;84.10;;;;;;5112090;28;20036;-77
2023/06/08 02:45:32;;;;;;;15.52;6.97;;;22.10;84.30;;;;;;5111590;28;20071;-77
2023/06/08 02:47:58;;;;;;;14.50;7.80;;;22.00;84.20;;;;;;5110353;28;20059;-79
2023/06/08 02:50:24;;;;;;;13.25;7.47;;;22.00;83.80;;;;;;5111907;28;20051;-77
2023/06/08 02:52:50;;;;;;;12.40;6.88;;;22.00;83.80;;;;;;5112519;28;20106;-79
2023/06/08 02:55:16;;;;;;;12.88;7.47;;;22.10;83.70;;;;;;5116014;28;20120;-77
2023/06/08 02:57:41;;;;;;;12.27;7.13;;;22.10;83.70;;;;;;5115624;28;20472;-76
2023/06/08 03:00:08;;;;;;;12.05;7.38;;;22.00;83.60;;;;;;5115631;28;20015;-78
2023/06/08 03:02:34;;;;;;;13.15;8.27;;;22.00;83.70;;;;;;5116822;28;20036;-79
2023/06/08 03:05:03;;;;;;;15.55;7.53;;;22.00;83.30;;;;;;5116644;28;20043;-78
2023/06/08 03:07:30;;;;;;;21.23;8.20;;;22.00;83.00;;;;;;5115914;28;20111;-77
2023/06/08 03:09:55;;;;;;;12.23;7.28;;;22.00;82.60;;;;;;5115328;28;20483;-78
2023/06/08 03:12:21;;;;;;;12.25;7.95;;;22.00;82.60;;;;;;5115155;28;20043;-79
2023/06/08 03:14:48;;;;;;;17.02;7.50;;;21.90;82.40;;;;;;5114049;28;20035;-77
2023/06/08 03:17:17;;;;;;;12.63;6.78;;;21.80;82.30;;;;;;5115420;28;20028;-78
2023/06/08 03:19:46;;;;;;;11.10;7.15;;;21.70;82.10;;;;;;5115525;28;20058;-78
2023/06/08 03:22:11;;;;;;;12.20;7.07;;;21.70;82.70;;;;;;5115281;28;20560;-78
2023/06/08 03:24:37;;;;;;;11.82;7.40;;;21.70;82.20;;;;;;5115074;28;20523;-79
2023/06/08 03:27:06;;;;;;;13.93;6.95;;;21.70;82.30;;;;;;5113568;28;20370;-78
2023/06/08 03:29:31;;;;;;;13.50;7.43;;;21.70;82.20;;;;;;5115165;28;20055;-78
2023/06/08 03:31:58;;;;;;;9.18;6.80;;;21.60;81.90;;;;;;5115383;28;20028;-78
2023/06/08 03:34:27;;;;;;;14.20;7.47;;;21.60;82.00;;;;;;5114936;28;20080;-77
2023/06/08 03:36:54;;;;;;;10.95;6.50;;;21.60;82.00;;;;;;5114995;28;20420;-78
2023/06/08 03:39:19;;;;;;;13.18;6.75;;;21.60;81.70;;;;;;5114861;28;20062;-79
2023/06/08 03:41:45;;;;;;;9.80;7.20;;;21.60;81.90;;;;;;5113192;28;20147;-77
2023/06/08 03:44:11;;;;;;;12.52;7.15;;;21.50;81.90;;;;;;5115080;28;20039;-78
2023/06/08 03:46:37;;;;;;;10.73;6.60;;;21.50;81.90;;;;;;5115325;28;20039;-78
2023/06/08 03:49:02;;;;;;;12.02;6.93;;;21.60;81.90;;;;;;5115684;27;20036;-78
2023/06/08 03:51:28;;;;;;;12.25;6.65;;;21.60;81.90;;;;;;5115105;28;20500;-78
2023/06/08 03:53:54;;;;;;;10.98;6.97;;;21.60;81.90;;;;;;5115058;27;20105;-77
2023/06/08 03:56:20;;;;;;;13.30;6.75;;;21.50;81.60;;;;;;5119332;28;20032;-79
2023/06/08 03:58:46;;;;;;;10.80;6.00;;;21.50;81.90;;;;;;5127348;27;20035;-79
2023/06/08 04:01:14;;;;;;;10.95;6.75;;;21.40;81.90;;;;;;5128702;28;20526;-78
2023/06/08 04:03:41;;;;;;;14.10;6.60;;;21.50;81.90;;;;;;5125401;28;20446;-77
2023/06/08 04:06:08;;;;;;;11.10;6.22;;;21.60;81.70;;;;;;5118490;28;20051;-78
2023/06/08 04:08:44;;;;;;;13.05;6.22;;;21.60;81.30;;;;;;5115180;28;20460;-77
2023/06/08 04:11:14;;;;;;;11.27;5.93;;;21.70;81.20;;;;;;5114811;27;20069;-77
2023/06/08 04:13:41;;;;;;;11.85;7.47;;;21.70;81.50;;;;;;5114030;27;20031;-78
2023/06/08 04:16:09;;;;;;;11.38;6.15;;;21.70;80.70;;;;;;5112455;28;20027;-77
2023/06/08 04:18:41;;;;;;;10.88;6.53;;;21.80;80.40;;;;;;5114193;27;20457;-79
2023/06/08 04:21:08;;;;;;;9.45;6.50;;;21.70;81.20;;;;;;5114063;28;20081;-79
2023/06/08 04:23:35;;;;;;;10.40;6.38;;;21.70;80.60;;;;;;5113770;28;20032;-79
2023/06/08 04:26:07;;;;;;;13.70;8.85;;;21.80;80.70;;;;;;5114084;27;20138;-78
2023/06/08 04:28:34;;;;;;;13.68;7.50;;;21.80;80.40;;;;;;5113927;28;20074;-77
2023/06/08 04:30:59;;;;;;;10.45;6.20;;;21.80;80.40;;;;;;5113770;28;20034;-78
2023/06/08 04:33:26;;;;;;;11.20;6.13;;;21.70;80.40;;;;;;5113713;28;20044;-78
2023/06/08 04:35:52;;;;;;;11.65;6.28;;;21.70;80.10;;;;;;5114163;28;20046;-78
2023/06/08 04:38:18;;;;;;;12.27;6.15;;;21.70;80.40;;;;;;5114130;28;20091;-79
2023/06/08 04:40:53;;;;;;;13.20;6.60;;;21.70;80.60;;;;;;5113842;28;20032;-78
2023/06/08 04:43:20;;;;;;;12.32;6.90;;;21.70;80.40;;;;;;5113498;28;20130;-78
2023/06/08 04:45:51;;;;;;;15.85;6.30;;;21.80;80.00;;;;;;5113363;28;20051;-78
2023/06/08 04:48:19;;;;;;;13.75;6.13;;;21.70;80.20;;;;;;5113690;28;20034;-79
2023/06/08 04:50:45;;;;;;;11.38;6.10;;;21.70;80.00;;;;;;5112296;28;20115;-78
2023/06/08 04:53:12;;;;;;;12.32;6.20;;;21.70;80.30;;;;;;5114309;28;20353;-79
2023/06/08 04:55:38;;;;;;;13.23;6.78;;;21.80;80.00;;;;;;5113327;28;20051;-79
2023/06/08 04:58:03;;;;;;;11.90;6.65;;;21.90;79.80;;;;;;5113788;28;20038;-79
2023/06/08 05:00:29;;;;;;;12.43;6.57;;;21.90;79.70;;;;;;5113652;28;20047;-79
2023/06/08 05:02:56;;;;;;;9.77;6.38;;;22.00;79.70;;;;;;5113540;28;20031;-78
2023/06/08 05:05:21;;;;;;;16.50;6.53;;;22.00;79.70;;;;;;5114932;28;20040;-78
2023/06/08 05:07:47;;;;;;;11.63;6.05;;;22.00;79.60;;;;;;5124657;28;20407;-80
2023/06/08 05:10:13;;;;;;;12.23;6.25;;;22.10;79.30;;;;;;5128192;28;20047;-79
2023/06/08 05:12:38;;;;;;;14.98;6.03;;;22.10;79.70;;;;;;5118269;28;20400;-79
2023/06/08 05:15:05;;;;;;;13.15;5.90;;;22.20;79.00;;;;;;5113034;28;20338;-79
2023/06/08 05:17:30;;;;;;;8.30;5.70;;;22.40;79.00;;;;;;5113078;28;20035;-79
2023/06/08 05:19:56;;;;;;;10.05;5.57;;;22.50;78.30;;;;;;5113234;28;20027;-79
2023/06/08 05:22:22;;;;;;;10.13;5.97;;;22.80;77.60;;;;;;5113455;28;20047;-80
2023/06/08 05:24:47;;;;;;;11.25;6.28;;;23.00;77.20;;;;;;5113125;28;20032;-80
2023/06/08 05:27:13;;;;;;;13.98;5.68;;;23.30;75.80;;;;;;5113549;28;20169;-79
2023/06/08 05:29:39;;;;;;;13.68;7.05;;;23.70;75.10;;;;;;5113489;28;20115;-79
2023/06/08 05:32:06;;;;;;;13.98;6.05;;;24.00;74.00;;;;;;5112997;28;20438;-78
2023/06/08 05:34:31;;;;;;;11.45;5.15;;;24.30;73.40;;;;;;5113396;28;20035;-80
2023/06/08 05:36:57;;;;;;;11.43;5.60;;;24.70;72.90;;;;;;5113390;28;20024;-79
2023/06/08 05:39:23;;;;;;;11.05;5.22;;;25.00;72.20;;;;;;5113342;28;20035;-80
2023/06/08 05:41:48;;;;;;;9.98;5.53;;;25.30;71.30;;;;;;5113159;28;20088;-79
2023/06/08 05:44:14;;;;;;;12.80;5.78;;;25.50;70.40;;;;;;5112932;28;20468;-79
2023/06/08 05:46:41;;;;;;;10.25;5.70;;;25.60;69.80;;;;;;5113183;28;20398;-79
2023/06/08 05:49:06;;;;;;;11.10;5.13;;;25.90;69.50;;;;;;5117981;28;20524;-79
2023/06/08 05:51:32;;;;;;;10.93;4.78;;;26.30;68.40;;;;;;5114280;28;20051;-80
2023/06/08 05:53:58;;;;;;;10.23;5.30;;;26.40;67.80;;;;;;5112948;28;20559;-82
2023/06/08 05:56:23;;;;;;;12.57;5.03;;;26.40;67.40;;;;;;5113020;28;20423;-78
2023/06/08 05:58:49;;;;;;;14.57;5.30;;;26.20;67.80;;;;;;5130732;27;20046;-76
2023/06/08 06:01:15;;;;;;;11.27;5.07;;;26.20;67.60;;;;;;5133216;27;20090;-73
2023/06/08 06:03:41;;;;;;;13.18;5.70;;;26.10;67.70;;;;;;5132437;27;20354;-73
2023/06/08 06:06:07;;;;;;;15.27;5.25;;;25.90;67.80;;;;;;5113800;28;20477;-71
2023/06/08 06:08:33;;;;;;;12.50;5.55;;;25.80;68.00;;;;;;5132470;28;20031;-71
2023/06/08 06:10:59;;;;;;;9.63;4.80;;;25.90;68.10;;;;;;5114036;28;20039;-71
2023/06/08 06:13:26;;;;;;;11.00;5.25;;;26.10;67.60;;;;;;5134168;28;20035;-72
2023/06/08 06:15:51;;;;;;;11.10;4.93;;;26.10;67.30;;;;;;5132618;28;20031;-73
2023/06/08 06:18:17;;;;;;;10.13;5.47;;;26.30;67.30;;;;;;5132501;28;20054;-72
2023/06/08 06:20:43;;;;;;;10.30;5.07;;;26.40;66.70;;;;;;5132070;28;20054;-73
2023/06/08 06:23:08;;;;;;;13.07;5.78;;;26.50;66.50;;;;;;5132228;28;20023;-73
2023/06/08 06:25:35;;;;;;;12.40;4.55;;;26.70;66.00;;;;;;5131995;28;20049;-74
2023/06/08 06:28:02;;;;;;;13.07;5.25;;;26.90;65.90;;;;;;5134746;27;20027;-75
2023/06/08 06:30:28;;;;;;;17.98;6.00;;;27.10;65.40;;;;;;5136332;27;20076;-76
2023/06/08 06:32:53;;;;;;;15.85;7.25;;;27.20;65.10;;;;;;5136652;27;20035;-73
2023/06/08 06:35:19;;;;;;;10.82;5.18;;;27.30;64.90;;;;;;5132788;27;20425;-77
2023/06/08 06:37:45;;;;;;;8.63;4.20;;;27.70;64.30;;;;;;5110423;27;20023;-77
2023/06/08 06:40:11;;;;;;;12.07;5.03;;;28.00;63.60;;;;;;5130805;27;20031;-77
2023/06/08 06:42:39;;;;;;;14.10;4.75;;;28.20;62.70;;;;;;5136434;27;20116;-77
2023/06/08 06:45:05;;;;;;;8.57;4.53;;;28.40;62.40;;;;;;5135860;27;20039;-78
2023/06/08 06:47:30;;;;;;;9.07;4.65;;;28.30;62.10;;;;;;5135947;27;20381;-77
2023/06/08 06:49:56;;;;;;;11.70;4.63;;;28.30;62.30;;;;;;5135979;27;20431;-77
2023/06/08 06:52:22;;;;;;;13.32;6.05;;;28.40;62.30;;;;;;5136032;27;20088;-78
2023/06/08 06:54:47;;;;;;;16.35;5.65;;;28.50;61.50;;;;;;5136141;27;20396;-76
2023/06/08 06:57:13;;;;;;;12.52;4.70;;;28.50;61.40;;;;;;5117286;27;20024;-76
2023/06/08 06:59:39;;;;;;;11.00;4.35;;;28.60;61.00;;;;;;5132416;27;20031;-76
2023/06/08 07:02:06;;;;;;;8.68;4.80;;;28.80;61.10;;;;;;5135762;27;20034;-77
2023/06/08 07:04:32;;;;;;;9.70;5.18;;;28.90;60.60;;;;;;5135802;27;20118;-76
2023/06/08 07:07:01;;;;;;;10.75;4.38;;;29.10;60.70;;;;;;5135456;27;20556;-75
2023/06/08 07:09:27;;;;;;;12.25;5.43;;;29.20;60.00;;;;;;5135300;27;20110;-76
2023/06/08 07:11:53;;;;;;;10.48;4.90;;;29.20;59.80;;;;;;5116816;27;20078;-76
2023/06/08 07:14:19;;;;;;;11.73;5.45;;;29.30;59.60;;;;;;5117061;27;20087;-74
2023/06/08 07:16:45;;;;;;;13.30;4.90;;;29.40;59.40;;;;;;5120444;27;20035;-76
2023/06/08 07:19:11;;;;;;;13.75;5.15;;;29.30;59.50;;;;;;5113281;28;20031;-76
2023/06/08 07:21:39;;;;;;;18.52;4.75;;;29.30;59.40;;;;;;5114582;28;20043;-76
2023/06/08 07:24:05;;;;;;;8.23;4.35;;;29.20;59.10;;;;;;5114830;28;20115;-76
2023/06/08 07:26:31;;;;;;;13.02;4.63;;;29.10;59.50;;;;;;5114823;28;20392;-75
2023/06/08 07:28:57;;;;;;;10.07;4.20;;;29.10;59.30;;;;;;5114752;28;20035;-76
2023/06/08 07:31:23;;;;;;;10.95;4.45;;;29.10;59.20;;;;;;5114806;28;20107;-76
2023/06/08 07:33:54;;;;;;;16.25;5.28;;;29.20;59.20;;;;;;5115087;28;20032;-75
2023/06/08 07:36:20;;;;;;;11.55;4.90;;;29.20;59.10;;;;;;5114725;28;20081;-74
2023/06/08 07:38:50;;;;;;;12.95;5.13;;;29.20;58.90;;;;;;5113345;28;20466;-76
2023/06/08 07:41:16;;;;;;;8.25;4.40;;;29.20;59.00;;;;;;5114318;28;20061;-76
2023/06/08 07:43:42;;;;;;;9.90;5.15;;;29.10;59.10;;;;;;5095833;28;20036;-76
2023/06/08 07:46:08;;;;;;;7.38;4.07;;;29.10;58.90;;;;;;5114442;28;20039;-76
2023/06/08 07:48:33;;;;;;;12.05;4.70;;;29.10;58.80;;;;;;5096060;28;20043;-75
2023/06/08 07:50:59;;;;;;;10.48;5.13;;;29.10;58.90;;;;;;5114478;28;20350;-75
2023/06/08 07:53:25;;;;;;;7.45;4.30;;;29.20;58.80;;;;;;5114388;28;20035;-76
2023/06/08 07:55:50;;;;;;;11.40;5.20;;;29.30;58.50;;;;;;5114100;28;20048;-76
2023/06/08 07:58:16;;;;;;;11.32;4.70;;;29.30;58.50;;;;;;5096029;28;20468;-77
2023/06/08 08:00:42;;;;;;;16.67;4.90;;;29.20;58.50;;;;;;5114410;28;20062;-77
2023/06/08 08:03:07;;;;;;;83.60;12.00;;;29.00;58.60;;;;;;5114045;28;20054;-75
2023/06/08 08:05:33;;;;;;;18.02;5.57;;;28.90;58.70;;;;;;5114097;28;20040;-76
2023/06/08 08:07:59;;;;;;;10.73;4.80;;;28.70;59.10;;;;;;5115076;28;20135;-75
2023/06/08 08:10:24;;;;;;;11.20;4.75;;;28.70;59.40;;;;;;5113642;28;20032;-76
2023/06/08 08:12:50;;;;;;;7.93;4.18;;;28.60;59.50;;;;;;5113840;28;20478;-75
2023/06/08 08:15:16;;;;;;;12.10;4.38;;;28.50;59.50;;;;;;5114023;28;20113;-77
2023/06/08 08:17:42;;;;;;;8.32;4.03;;;28.50;59.80;;;;;;5113812;28;20100;-76
2023/06/08 08:20:08;;;;;;;10.35;4.57;;;28.40;59.80;;;;;;5113525;28;20115;-77
2023/06/08 08:22:34;;;;;;;28.65;19.50;;;28.40;60.10;;;;;;5113738;28;20413;-76
2023/06/08 08:25:00;;;;;;;22.08;8.90;;;28.30;60.30;;;;;;5113615;28;20085;-75
2023/06/08 08:27:25;;;;;;;18.33;6.97;;;28.30;60.40;;;;;;5113532;28;20521;-76
2023/06/08 08:29:51;;;;;;;11.88;5.85;;;28.30;60.50;;;;;;5113450;28;20035;-75
2023/06/08 08:32:17;;;;;;;13.30;5.70;;;28.30;60.70;;;;;;5113536;28;20032;-75
2023/06/08 08:34:42;;;;;;;9.85;4.72;;;28.20;60.70;;;;;;5113552;28;20102;-76
2023/06/08 08:37:08;;;;;;;10.73;4.93;;;28.20;60.80;;;;;;5113298;28;20122;-76
2023/06/08 08:39:34;;;;;;;7.93;4.15;;;28.10;60.60;;;;;;5113509;28;20039;-77
2023/06/08 08:42:06;;;;;;;11.52;5.28;;;28.00;60.60;;;;;;5113192;28;20028;-76
2023/06/08 08:44:32;;;;;;;8.30;4.22;;;28.00;61.00;;;;;;5094391;28;20453;-79
2023/06/08 08:47:02;;;;;;;22.83;5.97;;;27.90;60.90;;;;;;5113476;28;20145;-82
2023/06/08 08:49:33;;;;;;;36.78;6.93;;;27.80;60.90;;;;;;5113953;28;20035;-81
2023/06/08 08:52:01;;;;;;;13.10;3.92;;;27.80;61.00;;;;;;5114102;27;20123;-79
2023/06/08 08:54:33;;;;;;;14.82;4.47;;;27.80;60.60;;;;;;5113568;28;20525;-79
2023/06/08 08:56:59;;;;;;;17.23;5.45;;;27.70;60.40;;;;;;5113278;28;20080;-80
2023/06/08 08:59:28;;;;;;;10.40;5.65;;;27.80;60.50;;;;;;5133550;27;20035;-78
2023/06/08 09:01:54;;;;;;;26.88;7.47;;;27.80;60.70;;;;;;5133123;27;20676;-74
2023/06/08 09:04:20;;;;;;;11.63;4.38;;;27.90;60.90;;;;;;5132893;27;20103;-75
2023/06/08 09:06:50;;;;;;;13.10;4.78;;;27.90;60.20;;;;;;5132898;27;20109;-76
2023/06/08 09:09:15;;;;;;;9.35;4.75;;;27.80;60.40;;;;;;5133174;27;20088;-75
2023/06/08 09:11:58;;;;;;;10.90;4.50;;;27.70;60.70;;;;;;5129952;27;20039;-77
2023/06/08 09:14:24;;;;;;;8.65;5.35;;;27.80;60.90;;;;;;5134533;27;20072;-77
2023/06/08 09:16:50;;;;;;;9.10;6.20;;;27.80;60.80;;;;;;5115134;27;20058;-79
2023/06/08 09:19:16;;;;;;;17.45;6.15;;;27.90;61.00;;;;;;5133122;27;20035;-77
2023/06/08 09:21:43;;;;;;;18.23;5.38;;;28.00;60.90;;;;;;5133613;27;20100;-76
2023/06/08 09:24:19;;;;;;;12.50;6.28;;;28.00;60.90;;;;;;5133090;27;20031;-74
2023/06/08 09:26:56;;;;;;;12.57;5.45;;;28.00;61.50;;;;;;5131570;27;20116;-75
2023/06/08 09:29:40;;;;;;;10.63;5.13;;;28.00;60.90;;;;;;5114400;27;20480;-74
2023/06/08 09:32:09;;;;;;;9.05;4.55;;;28.00;60.90;;;;;;5133601;27;20023;-74
2023/06/08 09:34:55;;;;;;;11.77;4.68;;;28.00;60.90;;;;;;5133808;27;20113;-76
2023/06/08 09:37:36;;;;;;;9.02;4.40;;;28.00;61.10;;;;;;5133821;27;20027;-76
2023/06/08 09:40:08;;;;;;;9.52;4.70;;;28.10;60.90;;;;;;5127659;27;20047;-79
2023/06/08 09:42:53;;;;;;;12.45;4.95;;;28.10;60.80;;;;;;5112866;28;20046;-81
2023/06/08 09:45:20;;;;;;;10.82;4.97;;;28.20;60.60;;;;;;5112045;28;20054;-72
2023/06/08 09:47:47;;;;;;;11.38;5.38;;;28.20;60.20;;;;;;5112228;28;20047;-73
2023/06/08 09:50:13;;;;;;;10.38;4.32;;;28.00;60.20;;;;;;5111848;28;20026;-71
2023/06/08 09:52:41;;;;;;;13.75;5.28;;;27.90;60.40;;;;;;5112107;28;20142;-70
2023/06/08 09:55:07;;;;;;;8.93;4.45;;;27.70;60.10;;;;;;5112750;27;20097;-71
2023/06/08 09:57:37;;;;;;;12.13;4.72;;;27.70;60.50;;;;;;5111689;28;20131;-69
2023/06/08 10:00:25;;;;;;;7.65;4.68;;;27.80;60.40;;;;;;5111720;28;20093;-69
2023/06/08 10:03:19;;;;;;;16.13;4.80;;;27.90;60.60;;;;;;5115296;27;20518;-69
2023/06/08 10:05:47;;;;;;;11.70;4.28;;;28.00;60.50;;;;;;5111670;28;20043;-69
2023/06/08 10:08:19;;;;;;;11.45;4.43;;;28.10;60.00;;;;;;5111832;28;20051;-69
2023/06/08 10:10:47;;;;;;;14.05;5.15;;;28.10;59.90;;;;;;5111926;28;20043;-70
2023/06/08 10:13:14;;;;;;;11.68;4.70;;;28.20;59.90;;;;;;5112229;28;20040;-68
2023/06/08 10:15:41;;;;;;;16.83;5.72;;;28.30;59.70;;;;;;5116763;28;20050;-70
2023/06/08 10:18:08;;;;;;;12.25;4.75;;;28.30;59.40;;;;;;5111581;28;20084;-69
2023/06/08 10:20:35;;;;;;;16.10;5.03;;;28.30;58.90;;;;;;5111717;28;20083;-70
2023/06/08 10:23:02;;;;;;;8.98;5.03;;;28.30;59.00;;;;;;5111657;28;20027;-69
2023/06/08 10:25:28;;;;;;;10.98;4.72;;;28.30;58.80;;;;;;5111668;28;20063;-70
2023/06/08 10:27:54;;;;;;;120.07;14.95;;;28.30;58.90;;;;;;5111310;28;20111;-70
2023/06/08 10:30:27;;;;;;;17.67;9.93;;;28.40;60.00;;;;;;5115346;28;20118;-72
2023/06/08 10:32:55;;;;;;;9.02;4.85;;;28.40;59.60;;;;;;5114439;28;20024;-71
2023/06/08 10:35:21;;;;;;;9.55;6.38;;;28.40;58.40;;;;;;5112579;28;20123;-72
2023/06/08 10:37:47;;;;;;;10.82;5.07;;;28.30;57.90;;;;;;5111313;28;20495;-71
2023/06/08 10:40:13;;;;;;;11.18;5.65;;;28.30;58.10;;;;;;5118249;28;20035;-73
2023/06/08 10:42:55;;;;;;;9.25;5.95;;;28.40;58.50;;;;;;5116302;28;20027;-79
2023/06/08 10:45:31;;;;;;;10.75;4.60;;;28.50;58.20;;;;;;5111695;28;20042;-77
2023/06/08 10:48:07;;;;;;;9.63;6.25;;;28.60;57.50;;;;;;5128885;28;20505;-82
2023/06/08 10:50:45;;;;;;;9.82;5.65;;;28.70;56.90;;;;;;5112052;28;20084;-79
2023/06/08 10:53:11;;;;;;;10.02;3.85;;;28.90;56.50;;;;;;5118578;28;20187;-80
2023/06/08 10:55:37;;;;;;;9.73;4.40;;;29.00;55.60;;;;;;5126072;28;20092;-80
2023/06/08 10:58:18;;;;;;;7.60;3.60;;;29.00;55.10;;;;;;5116152;28;20124;-82
2023/06/08 11:00:45;;;;;;;6.47;4.05;;;29.00;54.50;;;;;;5112111;28;20019;-80
2023/06/08 11:03:14;;;;;;;11.38;3.97;;;29.00;55.10;;;;;;5112903;28;20461;-81
2023/06/08 11:05:44;;;;;;;8.23;3.50;;;29.00;55.50;;;;;;5112331;28;20047;-81
2023/06/08 11:08:11;;;;;;;8.70;4.10;;;29.00;55.70;;;;;;5093262;28;20032;-81
2023/06/08 11:10:39;;;;;;;9.90;3.50;;;29.00;56.00;;;;;;5111637;28;20119;-80
2023/06/08 11:13:12;;;;;;;8.40;3.30;;;29.10;56.00;;;;;;5111267;28;20097;-81
2023/06/08 11:15:40;;;;;;;6.47;3.67;;;29.10;56.20;;;;;;5115030;28;20413;-80
2023/06/08 11:18:08;;;;;;;7.05;3.40;;;29.10;56.40;;;;;;5115218;28;20114;-81
2023/06/08 11:20:38;;;;;;;5.78;3.03;;;29.10;56.30;;;;;;5115134;28;20040;-80
2023/06/08 11:23:09;;;;;;;7.30;3.22;;;29.10;56.40;;;;;;5115190;28;20081;-80
2023/06/08 11:25:35;;;;;;;7.88;3.85;;;29.20;56.50;;;;;;5115447;28;20074;-81
2023/06/08 11:28:01;;;;;;;13.77;4.10;;;29.30;56.70;;;;;;5115684;28;20024;-80
2023/06/08 11:30:31;;;;;;;7.53;3.65;;;29.30;56.30;;;;;;5115219;28;20531;-82
2023/06/08 11:32:57;;;;;;;9.23;3.60;;;29.20;55.90;;;;;;5114968;28;20023;-82
2023/06/08 11:35:24;;;;;;;7.55;3.10;;;29.00;55.90;;;;;;5115027;28;20031;-81
2023/06/08 11:37:56;;;;;;;6.18;3.17;;;29.00;55.80;;;;;;5096770;28;20123;-81
2023/06/08 11:40:22;;;;;;;7.20;3.35;;;28.90;56.00;;;;;;5114873;28;20080;-80
2023/06/08 11:42:48;;;;;;;6.25;3.13;;;28.70;56.10;;;;;;5114650;28;20087;-83
2023/06/08 11:45:14;;;;;;;6.47;3.17;;;28.70;56.20;;;;;;5114742;28;20035;-81
2023/06/08 11:47:42;;;;;;;8.10;3.03;;;28.70;56.10;;;;;;5114688;28;20512;-81
2023/06/08 11:50:10;;;;;;;5.97;3.33;;;28.70;56.20;;;;;;5114426;28;20044;-82
2023/06/08 11:52:39;;;;;;;7.78;3.03;;;28.80;56.50;;;;;;5114694;28;20152;-83
2023/06/08 11:55:13;;;;;;;7.38;3.38;;;28.70;56.40;;;;;;5114544;28;20451;-80
2023/06/08 11:57:40;;;;;;;8.05;3.28;;;28.80;56.60;;;;;;5114365;28;20422;-80
2023/06/08 12:00:19;;;;;;;7.18;3.03;;;28.80;56.70;;;;;;5114659;28;20035;-80
2023/06/08 12:02:49;;;;;;;9.35;3.70;;;28.80;56.70;;;;;;5114095;28;20032;-81
2023/06/08 12:05:32;;;;;;;6.10;3.25;;;28.80;56.60;;;;;;5114375;28;20043;-79
2023/06/08 12:08:05;;;;;;;7.47;3.20;;;28.90;56.50;;;;;;5114256;28;20035;-80
2023/06/08 12:10:42;;;;;;;6.30;3.30;;;28.90;56.40;;;;;;5097063;28;20051;-81
2023/06/08 12:13:10;;;;;;;8.85;3.08;;;28.90;56.40;;;;;;5113994;28;20115;-81
2023/06/08 12:15:44;;;;;;;7.95;3.53;;;29.00;56.30;;;;;;5114544;28;20113;-81
2023/06/08 12:18:15;;;;;;;5.25;3.10;;;29.00;56.30;;;;;;5114183;28;20031;-80
2023/06/08 12:20:42;;;;;;;6.47;2.83;;;29.00;56.20;;;;;;5095675;28;20023;-81
2023/06/08 12:23:09;;;;;;;4.93;2.60;;;29.00;56.20;;;;;;5114116;28;20038;-82
2023/06/08 12:25:40;;;;;;;6.53;2.60;;;29.00;56.20;;;;;;5113666;28;20353;-81
2023/06/08 12:28:15;;;;;;;5.68;2.45;;;29.10;56.10;;;;;;5113869;28;20046;-82
2023/06/08 12:30:41;;;;;;;6.45;2.45;;;29.00;55.90;;;;;;5116789;28;20061;-82
2023/06/08 12:33:06;;;;;;;6.55;2.67;;;28.90;56.10;;;;;;5116963;28;20027;-82
2023/06/08 12:35:32;;;;;;;9.38;2.83;;;29.00;55.90;;;;;;5116317;28;20051;-80
2023/06/08 12:37:58;;;;;;;7.80;2.88;;;29.10;55.70;;;;;;5114088;28;20042;-80
2023/06/08 12:40:24;;;;;;;12.13;3.10;;;29.20;55.80;;;;;;5114263;28;20062;-81
2023/06/08 12:42:49;;;;;;;5.53;2.45;;;29.20;55.40;;;;;;5116110;28;20032;-81